Time;durP1;ratioP1;P1;durP2;ratioP2;P2;SDS_P1;SDS_P2;PMS_P1;PMS_P2;Temp;Humidity;BMP_temperature;BMP_pressure;BME280_temperature;BME280_humidity;BME280_pressure;Samples;Min_cycle;Max_cycle;Signal;HPM_P1;HPM_P2
2023/09/12 00:01:06;;;;;;;25.45;22.85;;;19.70;99.90;;;;;;6117476;23;20056;-72
2023/09/12 00:03:33;;;;;;;26.95;24.15;;;19.70;99.90;;;;;;6092434;23;20010;-71
2023/09/12 00:06:00;;;;;;;25.75;23.05;;;19.60;99.90;;;;;;6092644;23;20021;-72
2023/09/12 00:08:26;;;;;;;25.52;23.02;;;19.60;99.90;;;;;;6093370;23;20457;-72
2023/09/12 00:11:18;;;;;;;27.05;24.25;;;19.60;99.90;;;;;;6091457;23;20013;-72
2023/09/12 00:13:44;;;;;;;26.30;23.38;;;19.60;99.90;;;;;;6092172;23;20340;-71
2023/09/12 00:16:10;;;;;;;26.77;23.90;;;19.60;99.90;;;;;;6118446;23;20018;-71
2023/09/12 00:18:37;;;;;;;26.42;23.67;;;19.60;99.90;;;;;;6092698;23;20014;-72
2023/09/12 00:21:03;;;;;;;27.95;25.00;;;19.60;99.90;;;;;;6118448;23;20025;-71
2023/09/12 00:23:29;;;;;;;27.67;25.00;;;19.60;99.90;;;;;;6092433;23;20014;-72
2023/09/12 00:25:55;;;;;;;27.08;24.38;;;19.70;99.90;;;;;;6117955;23;20377;-72
2023/09/12 00:28:21;;;;;;;25.75;23.23;;;19.50;99.90;;;;;;6118882;23;20026;-71
2023/09/12 00:30:47;;;;;;;27.42;24.10;;;19.60;99.90;;;;;;6117253;23;20063;-72
2023/09/12 00:33:12;;;;;;;28.67;25.02;;;19.60;99.90;;;;;;6118393;23;20018;-71
2023/09/12 00:35:38;;;;;;;28.73;24.50;;;19.60;99.90;;;;;;6092345;23;20052;-71
2023/09/12 00:38:04;;;;;;;29.30;26.17;;;19.60;99.90;;;;;;6119145;23;20311;-71
2023/09/12 00:40:29;;;;;;;29.45;26.48;;;19.60;99.90;;;;;;6117301;23;20052;-72
2023/09/12 00:42:55;;;;;;;28.10;25.40;;;19.60;99.90;;;;;;6119055;23;20053;-71
2023/09/12 00:45:21;;;;;;;28.25;25.35;;;19.60;99.90;;;;;;6095556;23;20072;-72
2023/09/12 00:47:48;;;;;;;30.35;26.67;;;19.60;99.90;;;;;;6122036;23;20392;-71
2023/09/12 00:50:16;;;;;;;29.95;25.77;;;19.60;99.90;;;;;;6120602;23;20437;-71
2023/09/12 00:52:42;;;;;;;31.40;25.67;;;19.50;99.90;;;;;;6095945;23;20653;-71
2023/09/12 00:55:08;;;;;;;29.10;26.17;;;19.60;99.90;;;;;;6122028;23;20009;-71
2023/09/12 00:57:35;;;;;;;30.55;27.52;;;19.50;99.90;;;;;;6095898;23;20066;-71
2023/09/12 01:00:12;;;;;;;27.90;25.27;;;19.50;99.90;;;;;;6120487;23;20010;-72
2023/09/12 01:02:40;;;;;;;27.27;24.50;;;19.50;99.90;;;;;;6121598;23;20025;-72
2023/09/12 01:05:07;;;;;;;27.63;24.73;;;19.60;99.90;;;;;;6121572;23;20322;-72
2023/09/12 01:07:33;;;;;;;27.73;24.67;;;19.50;99.90;;;;;;6121104;23;20041;-71
2023/09/12 01:09:59;;;;;;;30.38;27.27;;;19.50;99.90;;;;;;6120642;23;20020;-71
2023/09/12 01:12:25;;;;;;;31.45;28.05;;;19.50;99.90;;;;;;6094924;23;20377;-71
2023/09/12 01:14:50;;;;;;;31.17;27.77;;;19.50;99.90;;;;;;6095136;23;20101;-72
2023/09/12 01:17:16;;;;;;;31.15;27.95;;;19.50;99.90;;;;;;6121690;23;20053;-72
2023/09/12 01:19:42;;;;;;;31.25;27.80;;;19.50;99.90;;;;;;6120840;23;20021;-71
2023/09/12 01:22:35;;;;;;;30.42;27.40;;;19.50;99.90;;;;;;6121697;23;20021;-72
2023/09/12 01:25:38;;;;;;;30.63;27.33;;;19.50;99.90;;;;;;6121415;23;20018;-72
2023/09/12 01:28:07;;;;;;;34.05;28.10;;;19.50;99.90;;;;;;6095905;23;20022;-71
2023/09/12 01:30:34;;;;;;;30.90;27.77;;;19.40;99.90;;;;;;6120687;23;20018;-72
2023/09/12 01:33:01;;;;;;;30.15;25.88;;;19.40;99.90;;;;;;6121956;23;20079;-72
2023/09/12 01:35:26;;;;;;;29.98;26.77;;;19.40;99.90;;;;;;6094794;23;20069;-72
2023/09/12 01:37:52;;;;;;;26.63;23.77;;;19.40;99.90;;;;;;6121370;23;20052;-72
2023/09/12 01:40:24;;;;;;;30.95;27.92;;;19.50;99.90;;;;;;6093701;23;20014;-72
2023/09/12 01:42:52;;;;;;;31.98;27.45;;;19.40;99.90;;;;;;6071210;23;20014;-72
2023/09/12 01:45:18;;;;;;;24.85;22.60;;;19.30;99.90;;;;;;6121681;23;20006;-72
2023/09/12 01:47:47;;;;;;;29.50;26.00;;;19.30;99.90;;;;;;6094873;23;20021;-72
2023/09/12 01:50:13;;;;;;;26.15;23.55;;;19.60;99.90;;;;;;6094703;23;20014;-72
2023/09/12 01:52:40;;;;;;;28.52;25.48;;;19.30;99.90;;;;;;6120389;23;20024;-72
2023/09/12 01:55:09;;;;;;;28.27;24.65;;;19.20;99.90;;;;;;6094384;23;20071;-71
2023/09/12 01:57:36;;;;;;;28.42;25.60;;;19.20;99.90;;;;;;6119415;23;20032;-71
2023/09/12 02:00:01;;;;;;;31.30;26.95;;;19.20;99.90;;;;;;6092807;23;20402;-72
2023/09/12 02:02:27;;;;;;;29.95;26.75;;;19.20;99.90;;;;;;6092529;23;20029;-72
2023/09/12 02:05:15;;;;;;;30.48;27.33;;;19.20;99.90;;;;;;6093231;23;20389;-72
2023/09/12 02:07:41;;;;;;;34.92;27.90;;;19.20;99.90;;;;;;6119651;23;20023;-71
2023/09/12 02:10:07;;;;;;;33.28;27.83;;;19.20;99.90;;;;;;6119228;23;20025;-71
2023/09/12 02:12:33;;;;;;;31.33;27.67;;;19.20;99.90;;;;;;6091393;23;20513;-71
2023/09/12 02:14:59;;;;;;;31.73;27.38;;;19.20;99.90;;;;;;6119992;23;20018;-71
2023/09/12 02:17:24;;;;;;;33.35;28.08;;;19.10;99.90;;;;;;6118833;23;20021;-71
2023/09/12 02:19:50;;;;;;;30.20;27.00;;;19.30;99.90;;;;;;6118482;23;20063;-71
2023/09/12 02:22:16;;;;;;;31.50;28.20;;;19.10;99.90;;;;;;6118917;23;20096;-72
2023/09/12 02:24:41;;;;;;;33.83;29.67;;;19.00;99.90;;;;;;6119588;23;20021;-71
2023/09/12 02:27:07;;;;;;;32.67;29.13;;;19.00;99.90;;;;;;6119350;23;20310;-72
2023/09/12 02:29:33;;;;;;;28.70;25.65;;;19.00;99.90;;;;;;6118742;23;20493;-72
2023/09/12 02:31:59;;;;;;;27.48;24.83;;;19.00;99.90;;;;;;6092119;23;20071;-72
2023/09/12 02:34:25;;;;;;;27.90;24.98;;;18.90;99.90;;;;;;6118753;23;20014;-72
2023/09/12 02:36:50;;;;;;;28.00;25.10;;;18.90;99.90;;;;;;6093013;23;20018;-72
2023/09/12 02:39:16;;;;;;;26.65;23.92;;;18.80;99.90;;;;;;6119081;23;20628;-72
2023/09/12 02:41:42;;;;;;;25.45;22.92;;;18.80;99.90;;;;;;6092667;23;20076;-72
2023/09/12 02:44:07;;;;;;;28.15;24.25;;;18.70;99.90;;;;;;6120143;23;20068;-72
2023/09/12 02:46:33;;;;;;;34.15;28.48;;;18.70;99.90;;;;;;6092425;23;20018;-72
2023/09/12 02:48:59;;;;;;;26.75;23.90;;;18.60;99.90;;;;;;6093076;23;20053;-72
2023/09/12 02:51:28;;;;;;;27.85;24.00;;;18.60;99.90;;;;;;6119536;23;20018;-72
2023/09/12 02:53:54;;;;;;;27.80;24.88;;;18.50;99.90;;;;;;6119331;23;20056;-72
2023/09/12 02:56:19;;;;;;;24.10;21.60;;;18.40;99.90;;;;;;6117484;23;20503;-72
2023/09/12 02:58:48;;;;;;;21.77;19.70;;;18.40;99.90;;;;;;6119110;23;20018;-72
2023/09/12 03:01:18;;;;;;;27.30;24.70;;;18.40;99.90;;;;;;6118887;23;20011;-72
2023/09/12 03:03:48;;;;;;;27.15;24.38;;;18.40;99.90;;;;;;6119495;23;20336;-72
2023/09/12 03:06:14;;;;;;;28.05;25.15;;;18.30;99.90;;;;;;6119311;23;20063;-72
2023/09/12 03:08:43;;;;;;;26.98;24.33;;;18.30;99.90;;;;;;6092060;23;20017;-72
2023/09/12 03:11:09;;;;;;;29.92;26.60;;;18.30;99.90;;;;;;6092907;23;20014;-72
2023/09/12 03:13:36;;;;;;;30.70;27.45;;;18.30;99.90;;;;;;6120058;23;20017;-72
2023/09/12 03:16:01;;;;;;;46.05;29.70;;;18.30;99.90;;;;;;6118502;23;20635;-72
2023/09/12 03:18:27;;;;;;;34.70;27.92;;;18.30;99.90;;;;;;6091915;23;20014;-72
2023/09/12 03:20:52;;;;;;;115.05;30.40;;;18.40;99.90;;;;;;6116195;23;20014;-72
2023/09/12 03:23:19;;;;;;;70.50;27.33;;;18.30;99.90;;;;;;6118842;23;20018;-72
2023/09/12 03:25:45;;;;;;;55.00;26.52;;;18.40;99.90;;;;;;6117886;23;20010;-72
2023/09/12 03:28:11;;;;;;;68.50;26.63;;;18.40;99.90;;;;;;6117563;23;20071;-72
2023/09/12 03:30:37;;;;;;;93.93;28.17;;;18.40;99.90;;;;;;6118166;23;20328;-72
2023/09/12 03:33:03;;;;;;;90.10;24.67;;;18.40;99.90;;;;;;6092193;23;20018;-72
2023/09/12 03:35:30;;;;;;;66.95;25.88;;;18.40;99.90;;;;;;6092643;23;20089;-72
2023/09/12 03:37:56;;;;;;;63.53;26.50;;;18.40;99.90;;;;;;6118326;23;20333;-72
2023/09/12 03:40:22;;;;;;;80.22;26.95;;;18.40;99.90;;;;;;6115757;23;20092;-72
2023/09/12 03:42:47;;;;;;;52.53;24.88;;;18.50;99.90;;;;;;6118932;23;20014;-72
2023/09/12 03:45:13;;;;;;;27.63;24.92;;;18.50;99.90;;;;;;6117791;23;20554;-72
2023/09/12 03:47:38;;;;;;;27.27;24.58;;;18.50;99.90;;;;;;6117377;23;20013;-72
2023/09/12 03:50:05;;;;;;;82.72;27.45;;;18.40;99.90;;;;;;6090220;23;20025;-73
2023/09/12 03:52:30;;;;;;;76.55;27.30;;;18.50;99.90;;;;;;6117941;23;20018;-72
2023/09/12 03:54:56;;;;;;;70.68;27.25;;;18.50;99.90;;;;;;6118564;23;20073;-72
2023/09/12 03:57:22;;;;;;;86.47;26.52;;;18.40;99.90;;;;;;6116733;23;20013;-72
2023/09/12 03:59:48;;;;;;;78.60;28.00;;;18.40;99.90;;;;;;6090778;23;20021;-72
2023/09/12 04:02:13;;;;;;;113.90;28.33;;;18.40;99.90;;;;;;6115948;23;20029;-72
2023/09/12 04:04:39;;;;;;;95.72;27.65;;;18.40;99.90;;;;;;6092687;23;20014;-72
2023/09/12 04:07:05;;;;;;;93.88;28.05;;;18.40;99.90;;;;;;6117211;23;20333;-72
2023/09/12 04:09:31;;;;;;;78.53;28.15;;;18.40;99.90;;;;;;6117890;23;20013;-72
2023/09/12 04:11:57;;;;;;;72.07;26.80;;;18.30;99.90;;;;;;6091526;23;20059;-72
2023/09/12 04:14:22;;;;;;;37.55;25.90;;;18.30;99.90;;;;;;6118126;23;20067;-72
2023/09/12 04:16:48;;;;;;;40.50;26.95;;;18.30;99.90;;;;;;6090479;23;20067;-72
2023/09/12 04:19:14;;;;;;;49.60;30.33;;;18.20;99.90;;;;;;6117491;23;20333;-72
2023/09/12 04:21:40;;;;;;;70.22;28.40;;;18.20;99.90;;;;;;6091332;23;20021;-72
2023/09/12 04:24:07;;;;;;;48.38;28.92;;;18.20;99.90;;;;;;6092546;23;20018;-72
2023/09/12 04:26:33;;;;;;;73.95;28.40;;;18.20;99.90;;;;;;6117231;23;20010;-71
2023/09/12 04:28:59;;;;;;;54.60;28.08;;;18.30;99.90;;;;;;6090970;23;20085;-73
2023/09/12 04:31:25;;;;;;;33.60;28.27;;;18.30;99.90;;;;;;6116358;23;20049;-72
2023/09/12 04:33:52;;;;;;;44.53;29.30;;;18.20;99.90;;;;;;6092282;23;20376;-72
2023/09/12 04:36:19;;;;;;;88.55;27.70;;;18.30;99.90;;;;;;6118676;23;20108;-72
2023/09/12 04:38:45;;;;;;;80.38;28.70;;;18.30;99.90;;;;;;6117028;23;20010;-72
2023/09/12 04:41:14;;;;;;;60.58;28.42;;;18.30;99.90;;;;;;6088310;23;20110;-72
2023/09/12 04:43:40;;;;;;;73.32;29.55;;;18.30;99.90;;;;;;6115104;23;20337;-72
2023/09/12 04:46:06;;;;;;;51.17;27.48;;;18.20;99.90;;;;;;6089271;23;20017;-72
2023/09/12 04:48:32;;;;;;;68.40;29.38;;;18.30;99.90;;;;;;6114842;23;20006;-72
2023/09/12 04:50:58;;;;;;;46.05;31.25;;;18.20;99.90;;;;;;6116370;23;20025;-72
2023/09/12 04:53:24;;;;;;;58.92;29.25;;;18.20;99.90;;;;;;6090334;23;20113;-72
2023/09/12 04:55:52;;;;;;;50.83;30.30;;;18.20;99.90;;;;;;6116455;23;20014;-72
2023/09/12 04:58:17;;;;;;;64.88;30.80;;;18.20;99.90;;;;;;6091562;23;20022;-72
2023/09/12 05:00:43;;;;;;;41.97;29.50;;;18.30;99.90;;;;;;6091583;23;20018;-72
2023/09/12 05:03:09;;;;;;;37.92;28.08;;;18.20;99.90;;;;;;6092318;23;20021;-72
2023/09/12 05:05:36;;;;;;;37.00;29.85;;;18.20;99.90;;;;;;6118866;23;20014;-72
2023/09/12 05:08:02;;;;;;;63.80;30.85;;;18.20;99.90;;;;;;6119483;23;20036;-72
2023/09/12 05:10:27;;;;;;;111.40;29.70;;;18.20;99.90;;;;;;6116216;23;20341;-72
2023/09/12 05:12:53;;;;;;;93.03;31.08;;;18.20;99.90;;;;;;6116821;23;20042;-73
2023/09/12 05:15:19;;;;;;;62.22;30.77;;;18.20;99.90;;;;;;6089328;23;20018;-72
2023/09/12 05:17:44;;;;;;;40.75;31.50;;;18.20;99.90;;;;;;6116477;23;20025;-72
2023/09/12 05:20:10;;;;;;;36.17;28.45;;;18.20;99.90;;;;;;6088129;23;20026;-72
2023/09/12 05:22:36;;;;;;;43.85;29.55;;;18.20;99.90;;;;;;6116003;23;20038;-72
2023/09/12 05:25:01;;;;;;;76.72;29.88;;;18.30;99.90;;;;;;6115463;23;20099;-72
2023/09/12 05:27:27;;;;;;;41.80;28.38;;;18.20;99.90;;;;;;6115792;23;20096;-72
2023/09/12 05:29:52;;;;;;;35.78;28.42;;;18.20;99.90;;;;;;6089657;23;20441;-72
2023/09/12 05:32:18;;;;;;;103.03;29.90;;;18.30;99.90;;;;;;6090556;23;20026;-72
2023/09/12 05:34:45;;;;;;;106.40;30.92;;;18.20;99.90;;;;;;6116287;23;20014;-72
2023/09/12 05:37:10;;;;;;;64.35;29.58;;;18.20;99.90;;;;;;6116102;23;20022;-72
2023/09/12 05:39:36;;;;;;;66.80;27.65;;;18.50;99.90;;;;;;6115792;23;20022;-72
2023/09/12 05:42:02;;;;;;;68.38;28.35;;;18.20;99.90;;;;;;6090634;23;20094;-72
2023/09/12 05:44:28;;;;;;;96.72;29.40;;;18.20;99.90;;;;;;6117597;23;20060;-72
2023/09/12 05:46:54;;;;;;;115.57;31.05;;;18.10;99.90;;;;;;6090481;23;20022;-72
2023/09/12 05:49:19;;;;;;;97.90;29.20;;;18.20;99.90;;;;;;6089143;23;20022;-72
2023/09/12 05:51:45;;;;;;;101.53;29.13;;;18.20;99.90;;;;;;6089722;23;20029;-73
2023/09/12 05:54:13;;;;;;;74.28;28.58;;;18.20;99.90;;;;;;6086715;23;20542;-72
2023/09/12 05:56:39;;;;;;;81.85;28.35;;;18.10;99.90;;;;;;6116077;23;20144;-72
2023/09/12 05:59:05;;;;;;;37.35;27.38;;;18.20;99.90;;;;;;6091272;23;20472;-72
2023/09/12 06:01:31;;;;;;;64.80;28.65;;;18.20;99.90;;;;;;6092908;23;20021;-72
2023/09/12 06:03:56;;;;;;;62.58;29.85;;;18.20;99.90;;;;;;6118252;23;20082;-72
2023/09/12 06:06:22;;;;;;;33.47;27.50;;;18.30;99.90;;;;;;6092496;23;20022;-72
2023/09/12 06:08:48;;;;;;;44.35;30.23;;;18.30;99.90;;;;;;6092122;23;20018;-72
2023/09/12 06:11:14;;;;;;;47.28;30.13;;;18.30;99.90;;;;;;6117965;23;20014;-72
2023/09/12 06:13:39;;;;;;;65.03;30.13;;;18.30;99.90;;;;;;6119390;23;20385;-72
2023/09/12 06:16:05;;;;;;;50.83;29.65;;;18.30;99.90;;;;;;6092784;23;20014;-71
2023/09/12 06:18:32;;;;;;;41.65;28.67;;;18.30;99.90;;;;;;6119563;23;20469;-72
2023/09/12 06:21:04;;;;;;;61.10;29.48;;;18.30;99.90;;;;;;6119613;23;20017;-71
2023/09/12 06:23:30;;;;;;;44.97;29.42;;;18.30;99.90;;;;;;6094381;23;20041;-71
2023/09/12 06:25:56;;;;;;;40.38;29.30;;;18.30;99.90;;;;;;6114802;23;20017;-72
2023/09/12 06:28:30;;;;;;;38.22;29.90;;;18.40;99.90;;;;;;6118345;23;20014;-71
2023/09/12 06:30:56;;;;;;;40.72;29.42;;;18.30;99.90;;;;;;6090012;23;20107;-71
2023/09/12 06:33:22;;;;;;;42.72;31.08;;;18.40;99.90;;;;;;6118471;23;20093;-72
2023/09/12 06:35:52;;;;;;;40.72;30.27;;;18.40;99.90;;;;;;6092582;23;20041;-71
2023/09/12 06:38:18;;;;;;;35.63;31.38;;;18.50;99.90;;;;;;6119464;23;20029;-71
2023/09/12 06:40:44;;;;;;;33.38;29.77;;;18.50;99.90;;;;;;6091754;23;20018;-71
2023/09/12 06:43:10;;;;;;;40.75;31.40;;;18.50;99.90;;;;;;6118859;23;20370;-71
2023/09/12 06:45:37;;;;;;;37.30;31.80;;;18.60;99.90;;;;;;6092878;23;20025;-71
2023/09/12 06:48:04;;;;;;;41.20;32.78;;;18.60;99.90;;;;;;6118136;23;20014;-71
2023/09/12 06:50:29;;;;;;;40.72;33.28;;;18.70;99.90;;;;;;6118080;23;20077;-71
2023/09/12 06:52:55;;;;;;;41.90;33.03;;;18.70;99.90;;;;;;6119389;23;20014;-71
2023/09/12 06:55:20;;;;;;;37.65;31.75;;;18.80;99.90;;;;;;6068769;23;20026;-71
2023/09/12 06:57:46;;;;;;;37.95;31.90;;;18.70;99.90;;;;;;6093460;23;20093;-71
2023/09/12 07:00:13;;;;;;;38.55;32.33;;;18.90;99.90;;;;;;6092039;23;20010;-71
2023/09/12 07:02:38;;;;;;;42.20;34.28;;;18.90;99.90;;;;;;6119138;23;20021;-71
2023/09/12 07:05:04;;;;;;;40.72;34.70;;;19.00;99.90;;;;;;6117307;23;20018;-71
2023/09/12 07:07:31;;;;;;;43.70;35.38;;;19.10;99.90;;;;;;6093213;23;20022;-71
2023/09/12 07:09:56;;;;;;;43.90;34.47;;;19.20;99.90;;;;;;6092670;23;20022;-71
2023/09/12 07:12:22;;;;;;;43.63;36.30;;;19.30;99.90;;;;;;6118739;23;20449;-71
2023/09/12 07:14:50;;;;;;;43.15;35.58;;;19.40;99.90;;;;;;6093831;23;20024;-71
2023/09/12 07:17:17;;;;;;;40.05;34.75;;;19.60;99.90;;;;;;6093013;23;20022;-71
2023/09/12 07:19:43;;;;;;;39.60;34.00;;;19.80;99.90;;;;;;6091696;23;20025;-71
2023/09/12 07:22:08;;;;;;;40.15;34.50;;;19.90;99.90;;;;;;6092596;23;20097;-71
2023/09/12 07:24:34;;;;;;;38.17;32.67;;;20.00;99.90;;;;;;6119538;23;20010;-71
2023/09/12 07:27:00;;;;;;;35.22;31.35;;;20.00;99.90;;;;;;6091874;23;20041;-71
2023/09/12 07:29:26;;;;;;;36.28;32.45;;;20.10;99.90;;;;;;6092716;23;20425;-71
2023/09/12 07:31:54;;;;;;;35.90;31.98;;;20.10;99.90;;;;;;6093228;23;20014;-71
2023/09/12 07:34:21;;;;;;;35.33;31.75;;;20.20;99.90;;;;;;6118544;23;20026;-71
2023/09/12 07:36:46;;;;;;;35.47;31.65;;;20.20;99.90;;;;;;6118771;23;20013;-71
2023/09/12 07:39:12;;;;;;;33.55;30.13;;;20.30;99.90;;;;;;6090638;23;20125;-71
2023/09/12 07:41:38;;;;;;;35.05;31.45;;;20.20;99.90;;;;;;6118720;23;20045;-71
2023/09/12 07:44:04;;;;;;;33.28;29.83;;;20.30;99.90;;;;;;6119067;23;20455;-71
2023/09/12 07:46:30;;;;;;;34.53;31.02;;;20.20;99.90;;;;;;6092628;23;20041;-71
2023/09/12 07:48:56;;;;;;;34.63;31.02;;;20.20;99.90;;;;;;6117314;23;20089;-71
2023/09/12 07:51:22;;;;;;;34.45;30.75;;;20.20;99.90;;;;;;6091996;23;20038;-71
2023/09/12 07:53:48;;;;;;;34.17;30.67;;;20.20;99.90;;;;;;6118133;23;20460;-71
2023/09/12 07:56:14;;;;;;;34.75;31.13;;;20.20;99.90;;;;;;6117477;23;20014;-71
2023/09/12 07:58:40;;;;;;;35.05;31.27;;;20.00;99.90;;;;;;6091037;23;20476;-71
2023/09/12 08:01:09;;;;;;;34.38;30.73;;;20.10;99.90;;;;;;6117384;23;20010;-71
2023/09/12 08:03:36;;;;;;;36.97;33.00;;;20.10;99.90;;;;;;6092457;23;20018;-71
2023/09/12 08:06:02;;;;;;;37.35;33.40;;;20.00;99.90;;;;;;6118081;23;20017;-71
2023/09/12 08:08:28;;;;;;;36.08;32.17;;;20.00;99.90;;;;;;6117494;23;20376;-71
2023/09/12 08:10:54;;;;;;;36.17;32.38;;;20.20;99.90;;;;;;6091516;23;20017;-71
2023/09/12 08:13:20;;;;;;;35.75;31.95;;;20.20;99.90;;;;;;6092510;23;20032;-71
2023/09/12 08:15:45;;;;;;;41.58;34.05;;;20.30;99.90;;;;;;6118418;23;20053;-71
2023/09/12 08:18:11;;;;;;;37.72;33.63;;;20.20;99.90;;;;;;6117909;23;20010;-71
2023/09/12 08:20:37;;;;;;;38.85;34.47;;;20.20;99.90;;;;;;6091158;23;20596;-71
2023/09/12 08:23:03;;;;;;;38.05;33.88;;;20.30;99.90;;;;;;6118102;23;20010;-71
2023/09/12 08:25:28;;;;;;;41.80;35.42;;;20.30;99.90;;;;;;6118473;23;20056;-71
2023/09/12 08:27:54;;;;;;;42.75;34.45;;;20.30;99.90;;;;;;6117899;23;20014;-71
2023/09/12 08:30:20;;;;;;;38.17;34.00;;;20.30;99.90;;;;;;6117202;23;20089;-71
2023/09/12 08:32:45;;;;;;;45.03;36.00;;;20.20;99.90;;;;;;6118785;23;20020;-71
2023/09/12 08:35:12;;;;;;;45.10;36.42;;;20.20;99.90;;;;;;6092533;23;20444;-71
2023/09/12 08:37:39;;;;;;;39.58;35.00;;;20.20;99.90;;;;;;6117811;23;20337;-71
2023/09/12 08:40:08;;;;;;;41.35;35.83;;;20.10;99.90;;;;;;6117135;23;20021;-71
2023/09/12 08:42:43;;;;;;;43.30;36.20;;;20.20;99.90;;;;;;6090360;23;20018;-71
2023/09/12 08:45:13;;;;;;;41.35;35.35;;;20.20;99.90;;;;;;6115635;23;20032;-71
2023/09/12 08:47:44;;;;;;;39.85;35.00;;;20.20;99.90;;;;;;6092499;23;20437;-71
2023/09/12 08:50:12;;;;;;;38.05;33.95;;;20.20;99.90;;;;;;6117826;23;20395;-71
2023/09/12 08:52:39;;;;;;;42.55;36.53;;;20.40;99.90;;;;;;6118573;23;20014;-71
2023/09/12 08:55:05;;;;;;;39.83;35.00;;;20.50;99.90;;;;;;6091313;23;20021;-71
2023/09/12 08:57:33;;;;;;;41.53;34.67;;;20.70;99.90;;;;;;6117258;23;20064;-71
2023/09/12 09:00:05;;;;;;;40.08;34.38;;;21.00;99.90;;;;;;6091418;23;20010;-71
2023/09/12 09:02:33;;;;;;;40.45;34.13;;;21.20;99.90;;;;;;6117748;23;20018;-71
2023/09/12 09:05:00;;;;;;;38.70;34.17;;;21.30;99.90;;;;;;6091118;23;20018;-71
2023/09/12 09:07:27;;;;;;;36.05;32.13;;;21.40;99.90;;;;;;6069290;23;20014;-71
2023/09/12 09:09:53;;;;;;;36.20;32.00;;;21.50;99.90;;;;;;6117535;23;20344;-71
2023/09/12 09:12:19;;;;;;;36.65;32.72;;;21.60;99.90;;;;;;6115826;23;20010;-71
2023/09/12 09:14:45;;;;;;;37.67;33.10;;;21.60;99.90;;;;;;6092326;23;20022;-71
2023/09/12 09:17:12;;;;;;;34.70;31.13;;;21.70;99.90;;;;;;6119068;23;20024;-71
2023/09/12 09:19:43;;;;;;;39.00;32.55;;;21.80;99.90;;;;;;6117232;23;20010;-71
2023/09/12 09:22:08;;;;;;;38.42;33.53;;;21.90;99.90;;;;;;6067265;23;20022;-71
2023/09/12 09:24:34;;;;;;;37.42;32.65;;;21.80;99.90;;;;;;6119067;23;20096;-71
2023/09/12 09:27:00;;;;;;;37.22;32.85;;;21.90;99.90;;;;;;6118686;23;20016;-71
2023/09/12 09:29:31;;;;;;;35.42;31.23;;;21.90;99.90;;;;;;6116635;23;20026;-71
2023/09/12 09:31:59;;;;;;;34.40;30.52;;;21.80;99.90;;;;;;6117333;23;20073;-71
2023/09/12 09:34:27;;;;;;;32.80;29.38;;;21.80;99.90;;;;;;6092169;23;20044;-71
2023/09/12 09:36:54;;;;;;;32.40;29.17;;;21.90;99.90;;;;;;6118655;23;20022;-71
2023/09/12 09:39:25;;;;;;;31.77;28.42;;;21.90;99.90;;;;;;6089624;23;20097;-71
2023/09/12 09:41:53;;;;;;;34.10;30.65;;;22.10;99.90;;;;;;6117991;23;20018;-71
2023/09/12 09:44:21;;;;;;;34.03;29.77;;;22.20;99.90;;;;;;6119100;23;20394;-71
2023/09/12 09:46:58;;;;;;;32.05;28.60;;;22.20;99.90;;;;;;6092537;23;20097;-71
2023/09/12 09:49:23;;;;;;;;;;;22.20;99.90;;;;;;6117604;23;20593;-71
2023/09/12 09:51:49;;;;;;;30.55;27.33;;;22.30;99.90;;;;;;6118506;23;19947;-71
2023/09/12 09:54:15;;;;;;;31.88;28.15;;;22.40;99.90;;;;;;6092381;23;20022;-71
2023/09/12 09:56:54;;;;;;;32.85;29.50;;;22.40;99.90;;;;;;6091926;23;20033;-71
2023/09/12 09:59:24;;;;;;;30.60;27.45;;;22.50;99.90;;;;;;6090700;23;20018;-71
2023/09/12 10:01:55;;;;;;;32.55;28.88;;;22.70;99.90;;;;;;6091939;23;20018;-71
2023/09/12 10:04:22;;;;;;;33.25;29.63;;;22.80;99.90;;;;;;6092542;23;20023;-71
2023/09/12 10:06:49;;;;;;;32.67;29.15;;;23.00;99.90;;;;;;6114939;23;20736;-71
2023/09/12 10:09:16;;;;;;;32.15;28.75;;;23.20;99.90;;;;;;6089375;23;20014;-71
2023/09/12 10:11:47;;;;;;;31.88;28.27;;;23.20;99.90;;;;;;6117515;23;20045;-71
2023/09/12 10:14:16;;;;;;;31.80;26.90;;;23.20;99.90;;;;;;6117757;23;20076;-71
2023/09/12 10:16:47;;;;;;;28.52;25.73;;;23.40;99.90;;;;;;6116443;23;20372;-71
2023/09/12 10:19:21;;;;;;;29.17;26.10;;;23.30;99.90;;;;;;6090692;23;20018;-71
2023/09/12 10:21:49;;;;;;;29.27;26.27;;;23.40;99.90;;;;;;6117351;23;20710;-71
2023/09/12 10:24:15;;;;;;;28.65;25.70;;;23.30;99.90;;;;;;6117792;23;20350;-71
2023/09/12 10:26:44;;;;;;;28.95;26.15;;;23.30;99.90;;;;;;6117754;23;20022;-71
2023/09/12 10:29:14;;;;;;;28.10;25.23;;;23.30;99.90;;;;;;6092530;23;20025;-71
2023/09/12 10:31:40;;;;;;;26.40;23.80;;;23.40;99.90;;;;;;6118031;23;20349;-71
2023/09/12 10:34:09;;;;;;;26.10;23.08;;;23.30;99.90;;;;;;6117837;23;20025;-71
2023/09/12 10:36:38;;;;;;;25.60;23.20;;;23.40;99.90;;;;;;6118977;23;20124;-71
2023/09/12 10:39:05;;;;;;;24.60;22.10;;;23.50;99.90;;;;;;6118843;23;20337;-71
2023/09/12 10:41:32;;;;;;;26.55;23.65;;;23.60;99.90;;;;;;6118460;23;20049;-71
2023/09/12 10:43:59;;;;;;;24.25;21.92;;;23.50;99.90;;;;;;6119809;23;20042;-71
2023/09/12 10:46:24;;;;;;;27.10;24.00;;;23.60;99.90;;;;;;6119322;23;20045;-71
2023/09/12 10:48:51;;;;;;;26.52;23.75;;;23.50;99.90;;;;;;6118648;23;20029;-71
2023/09/12 10:51:18;;;;;;;23.90;21.60;;;23.50;99.90;;;;;;6092211;23;20064;-72
2023/09/12 10:53:50;;;;;;;24.67;21.35;;;23.60;99.90;;;;;;6093263;23;20096;-71
2023/09/12 10:56:17;;;;;;;24.05;21.67;;;23.70;99.90;;;;;;6118537;23;20092;-71
2023/09/12 10:59:12;;;;;;;25.42;22.75;;;24.00;99.90;;;;;;6092557;23;20042;-71
2023/09/12 11:01:46;;;;;;;25.75;23.08;;;24.20;99.90;;;;;;6091356;23;20029;-71
2023/09/12 11:04:24;;;;;;;25.20;22.60;;;24.30;99.90;;;;;;6119593;23;20067;-71
2023/09/12 11:06:50;;;;;;;24.13;21.55;;;24.50;99.90;;;;;;6118994;23;20010;-71
2023/09/12 11:09:25;;;;;;;20.65;18.63;;;24.50;99.90;;;;;;6116625;23;20022;-71
2023/09/12 11:11:55;;;;;;;22.27;19.83;;;24.50;99.90;;;;;;6117946;23;20022;-71
2023/09/12 11:14:20;;;;;;;21.70;19.60;;;24.60;99.90;;;;;;6092241;23;20026;-72
2023/09/12 11:17:08;;;;;;;23.48;21.00;;;24.70;99.90;;;;;;6117930;23;20460;-71
2023/09/12 11:19:44;;;;;;;23.10;20.58;;;24.80;99.90;;;;;;6092247;23;20022;-71
2023/09/12 11:22:26;;;;;;;23.90;20.17;;;24.70;99.90;;;;;;6118632;23;20135;-71
2023/09/12 11:24:52;;;;;;;19.15;17.27;;;24.90;99.90;;;;;;6093425;23;20014;-71
2023/09/12 11:27:18;;;;;;;20.63;17.02;;;25.10;99.90;;;;;;6092118;23;20020;-71
2023/09/12 11:29:45;;;;;;;18.92;14.93;;;25.30;99.90;;;;;;6090913;23;20429;-71
2023/09/12 11:32:31;;;;;;;19.17;15.27;;;25.60;99.90;;;;;;6091505;23;20395;-71
2023/09/12 11:34:56;;;;;;;15.60;14.20;;;25.80;99.90;;;;;;6118662;23;20045;-71
2023/09/12 11:37:24;;;;;;;20.48;15.73;;;25.90;99.90;;;;;;6119546;23;20048;-71
2023/09/12 11:39:51;;;;;;;15.73;13.80;;;26.00;99.90;;;;;;6092226;23;20033;-71
2023/09/12 11:42:16;;;;;;;15.95;14.40;;;26.20;99.90;;;;;;6092096;23;20014;-71
2023/09/12 11:44:44;;;;;;;15.02;12.90;;;26.10;99.90;;;;;;6114429;23;20014;-71
2023/09/12 11:47:11;;;;;;;16.40;13.55;;;26.20;99.90;;;;;;6088632;23;20097;-71
2023/09/12 11:49:38;;;;;;;17.92;11.35;;;26.10;99.90;;;;;;6115487;23;20053;-71
2023/09/12 11:52:12;;;;;;;14.38;13.00;;;26.00;99.90;;;;;;6118446;23;20441;-71
2023/09/12 11:54:39;;;;;;;12.93;11.50;;;25.90;99.90;;;;;;6093108;23;20059;-71
2023/09/12 11:57:07;;;;;;;14.52;12.95;;;25.70;99.90;;;;;;6092581;23;20025;-71
2023/09/12 11:59:39;;;;;;;14.63;13.07;;;25.60;99.90;;;;;;6116379;23;20326;-71
2023/09/12 12:02:09;;;;;;;16.63;12.73;;;25.50;99.90;;;;;;6117033;23;20014;-71
2023/09/12 12:04:35;;;;;;;16.17;14.50;;;25.50;99.90;;;;;;6092649;23;20502;-71
2023/09/12 12:07:02;;;;;;;15.15;12.65;;;25.50;99.90;;;;;;6118461;23;20453;-71
2023/09/12 12:09:28;;;;;;;14.40;12.68;;;25.40;99.90;;;;;;6092495;23;20010;-71
2023/09/12 12:11:53;;;;;;;15.73;14.20;;;25.40;99.90;;;;;;6092589;23;20076;-71
2023/09/12 12:14:19;;;;;;;15.27;13.88;;;25.20;99.90;;;;;;6118562;23;20014;-71
2023/09/12 12:16:46;;;;;;;18.05;15.02;;;25.10;99.90;;;;;;6118315;23;20497;-71
2023/09/12 12:19:14;;;;;;;20.75;13.40;;;24.90;99.90;;;;;;6117038;23;20014;-71
2023/09/12 12:21:40;;;;;;;19.15;13.52;;;24.90;99.90;;;;;;6119236;23;20045;-72
2023/09/12 12:24:10;;;;;;;16.42;13.35;;;24.70;99.90;;;;;;6118972;23;20006;-71
2023/09/12 12:26:36;;;;;;;21.92;16.10;;;24.60;99.90;;;;;;6093075;23;20498;-71
2023/09/12 12:29:03;;;;;;;28.65;19.85;;;24.40;99.90;;;;;;6091629;23;20018;-71